Главная страница
METAR-TAF:

METAR-TAF

Аэропорты :

Кувейт, Кувейт

широта: 29-13N, долгота: 047-59E, высота над уровнем моря: 55 м

Текущие метеонаблюдения

Эта сводка был подготовлена 1 час и 2 минут назад, в 14:00 UTC
Ветер 14 Узел от юго-восточный
Температура 22°C
Влажность 73%
Давление 1003 hPa
Видимость: 7000 м
Отдельные облака на высоте 4000 фута
Сплошная облачность на высоте 8000 фута

METAR: OKBK 241400Z 13014KT 7000 SCT040 OVC080 22/17 Q1003 NOSIG

Время: 18:02 (15:02 UTC)

Прогноз

Эта сводка был подготовлена 4 часа и 17 минут назад, в 10:45 UTC
Прогноз действительный с 24-го 12 UTC до 25-го 18 UTC
Ветер 15 Узел от юго-юго-восточный с порывами до 25 Узел
Видимость: 6000 м
Отдельные облака на высоте 4000 фута
Рассеянная облачность на высоте 8000 фута
временами
С 24-го 12 UTC до 25-го 04 UTC
Видимость: 3000 м
небольшая облачность на высоте 2500 фута, Кучево-дождевые.

TAF: OKBK 241045Z 2412/2518 15015G25KT 6000 SCT040 BKN080 TEMPO 2412/2504 3000 TSRA/BLDU FEW025CB

Метеонаблюдения и прогнозы для более 4000 аэропортов (сводки METAR и TAF).

Имеющиеся станции представлены на карте желтыми и красными точками.

Чтобы увидеть название станции, наведите на нее мышь.

Затем щелкните, чтобы увидеть метеонаблюдения и метеопрогнозы.

Управление картой: чтобы увеличить масштаб, щелкните зеленые кнопки с черным крестиком; чтобы уменьшить масштаб, щелкните зеленую кнопку с тире; для просмотра соседних карт щелкайте зеленые стрелки.


METAR-TAF: